createdAt,value
2022-09-04T00:05:04.291Z,100986.19
2022-09-04T00:10:31.392Z,100990.55
2022-09-04T00:15:53.675Z,100989.17
2022-09-04T00:21:09.970Z,100991.26
2022-09-04T00:26:43.292Z,100991.95
2022-09-04T00:31:59.502Z,100998.05
2022-09-04T00:37:07.322Z,100997.35
2022-09-04T00:42:32.450Z,100997.86
2022-09-04T00:47:39.654Z,100998.73
2022-09-04T00:52:48.598Z,101003.61
2022-09-04T00:58:33.590Z,101008.32
2022-09-04T01:04:08.034Z,101016.16
2022-09-04T01:09:32.544Z,101011.80
2022-09-04T01:15:03.133Z,101011.79
2022-09-04T01:20:24.130Z,101016.84
2022-09-04T01:25:55.395Z,101016.84
2022-09-04T01:31:36.866Z,101011.08
2022-09-04T01:36:58.448Z,101010.20
2022-09-04T01:42:14.968Z,101010.92
2022-09-04T01:47:47.365Z,101008.14
2022-09-04T01:53:05.525Z,101010.77
2022-09-04T01:58:16.622Z,101008.84
2022-09-04T02:03:39.584Z,101012.34
2022-09-04T02:09:04.037Z,101010.08
2022-09-04T02:14:19.503Z,101008.71
2022-09-04T02:19:38.001Z,101009.05
2022-09-04T02:25:19.076Z,101010.27
2022-09-04T02:30:22.448Z,101003.44
2022-09-04T02:35:31.125Z,101004.68
2022-09-04T02:41:00.965Z,101004.16
2022-09-04T02:46:47.049Z,101003.45
2022-09-04T02:52:02.377Z,101006.59
2022-09-04T02:57:50.645Z,101004.31
2022-09-04T03:03:05.981Z,101005.88
2022-09-04T03:08:58.515Z,101005.50
2022-09-04T03:14:16.063Z,101005.50
2022-09-04T03:19:28.385Z,101004.62
2022-09-04T03:24:39.885Z,101005.84
2022-09-04T03:29:55.797Z,101005.50
2022-09-04T03:35:20.712Z,101002.52
2022-09-04T03:40:28.838Z,101000.77
2022-09-04T03:45:54.377Z,101005.13
2022-09-04T03:50:58.813Z,101005.98
2022-09-04T03:56:20.559Z,101011.74
2022-09-04T04:01:45.071Z,101011.40
2022-09-04T04:07:08.662Z,101023.09
2022-09-04T04:12:49.843Z,101029.53
2022-09-04T04:18:31.677Z,101030.90
2022-09-04T04:23:48.712Z,101032.41
2022-09-04T04:28:59.993Z,101035.48
2022-09-04T04:34:11.725Z,101042.28
2022-09-04T04:39:17.393Z,101036.75
2022-09-04T04:44:51.019Z,101036.36
2022-09-04T04:50:17.067Z,101039.60
2022-09-04T04:55:59.296Z,101040.16
2022-09-04T05:01:25.604Z,101048.30
2022-09-04T05:06:38.920Z,101045.35
2022-09-04T05:11:56.856Z,101048.41
2022-09-04T05:17:09.938Z,101055.70
2022-09-04T05:22:35.630Z,101054.17
2022-09-04T05:27:58.716Z,101064.36
2022-09-04T05:33:06.629Z,101067.11
2022-09-04T05:38:32.776Z,101070.45
2022-09-04T05:43:38.757Z,101074.62
2022-09-04T05:48:53.124Z,101076.23
2022-09-04T05:54:14.669Z,101079.81
2022-09-04T05:59:46.962Z,101080.05
2022-09-04T06:04:50.888Z,101086.28
2022-09-04T06:10:15.603Z,101092.46
2022-09-04T06:15:24.550Z,101093.79
2022-09-04T06:20:52.342Z,101098.48
2022-09-04T06:26:07.631Z,101099.61
2022-09-04T06:31:13.597Z,101105.16
2022-09-04T06:36:42.458Z,101106.80
2022-09-04T06:42:15.940Z,101108.42
2022-09-04T06:47:43.730Z,101118.20
2022-09-04T06:52:56.257Z,101121.25
2022-09-04T06:58:15.336Z,101115.33
2022-09-04T07:03:53.777Z,101112.79
2022-09-04T07:09:19.930Z,101111.71
2022-09-04T07:15:08.511Z,101115.84
2022-09-04T07:20:27.059Z,101116.59
2022-09-04T07:25:29.989Z,101117.73
2022-09-04T07:31:22.475Z,101120.20
2022-09-04T07:36:31.641Z,101122.45
2022-09-04T07:41:54.504Z,101132.73
2022-09-04T07:47:14.779Z,101130.77
2022-09-04T07:52:23.458Z,101131.10
2022-09-04T07:57:42.200Z,101135.48
2022-09-04T08:02:45.099Z,101133.52
2022-09-04T08:08:10.753Z,101143.67
2022-09-04T08:13:34.530Z,101149.39
2022-09-04T08:19:08.772Z,101149.09
2022-09-04T08:24:37.373Z,101160.91
2022-09-04T08:30:09.184Z,101168.70
2022-09-04T08:35:27.326Z,101167.72
2022-09-04T08:40:52.290Z,101168.69
2022-09-04T08:46:36.037Z,101171.83
2022-09-04T08:51:57.847Z,101173.38
2022-09-04T08:57:19.802Z,101180.12
2022-09-04T09:02:44.888Z,101183.52
2022-09-04T09:07:54.279Z,101190.42
2022-09-04T09:13:15.972Z,101186.30
2022-09-04T09:18:40.754Z,101189.14
2022-09-04T09:24:01.808Z,101190.20
2022-09-04T09:29:41.964Z,101194.29
2022-09-04T09:35:02.051Z,101197.62
2022-09-04T09:40:26.770Z,101196.02
2022-09-04T09:45:57.501Z,101192.69
2022-09-04T09:51:44.772Z,101189.94
2022-09-04T09:56:53.790Z,101191.59
2022-09-04T10:02:18.158Z,101193.48
2022-09-04T10:07:40.185Z,101191.50
2022-09-04T10:13:20.812Z,101195.17
2022-09-04T10:18:36.264Z,101191.44
2022-09-04T10:23:58.933Z,101192.97
2022-09-04T10:29:20.677Z,101191.02
2022-09-04T10:34:30.446Z,101190.91
2022-09-04T10:40:11.871Z,101183.87
2022-09-04T10:45:33.316Z,101181.30
2022-09-04T10:50:59.036Z,101182.82
2022-09-04T10:56:09.407Z,101183.90
2022-09-04T11:01:35.363Z,101174.79
2022-09-04T11:07:28.820Z,101172.31
2022-09-04T11:12:51.071Z,101174.41
2022-09-04T11:18:03.945Z,101180.44
2022-09-04T11:23:23.533Z,101174.08
2022-09-04T11:28:46.914Z,101170.76
2022-09-04T11:34:21.257Z,101171.02
2022-09-04T11:39:39.148Z,101175.21
2022-09-04T11:45:00.772Z,101174.20
2022-09-04T11:50:22.197Z,101176.45
2022-09-04T11:55:54.590Z,101172.90
2022-09-04T12:01:19.102Z,101162.88
2022-09-04T12:06:39.019Z,101162.69
2022-09-04T12:12:01.262Z,101154.89
2022-09-04T12:17:29.084Z,101157.52
2022-09-04T12:23:09.537Z,101155.36
2022-09-04T12:28:16.022Z,101154.70
2022-09-04T12:33:49.850Z,101158.77
2022-09-04T12:39:11.189Z,101159.92
2022-09-04T12:44:34.904Z,101161.77
2022-09-04T12:50:01.548Z,101162.89
2022-09-04T12:55:33.534Z,101155.88
2022-09-04T13:00:52.905Z,101157.12
2022-09-04T13:06:31.565Z,101165.00
2022-09-04T13:11:43.682Z,101166.45
2022-09-04T13:17:01.949Z,101170.79
2022-09-04T13:22:39.671Z,101166.68
2022-09-04T13:28:16.911Z,101163.96
2022-09-04T13:33:42.408Z,101169.85
2022-09-04T13:39:06.734Z,101170.04
2022-09-04T13:44:28.153Z,101170.31
2022-09-04T13:49:48.173Z,101172.99
2022-09-04T13:55:00.484Z,101179.00
2022-09-04T14:00:08.029Z,101174.52
2022-09-04T14:05:22.165Z,101173.05
2022-09-04T14:11:01.729Z,101168.89
2022-09-04T14:16:11.886Z,101161.77
2022-09-04T14:21:43.512Z,101164.58
2022-09-04T14:27:04.573Z,101158.42
2022-09-04T14:32:28.461Z,101150.11
2022-09-04T14:37:42.880Z,101149.25
2022-09-04T14:43:00.324Z,101154.59
2022-09-04T14:48:07.496Z,101162.60
2022-09-04T14:53:11.098Z,101167.83
2022-09-04T14:58:30.233Z,101163.91
2022-09-04T15:03:49.277Z,101171.70
2022-09-04T15:08:53.932Z,101168.69
2022-09-04T15:14:33.102Z,101170.99
2022-09-04T15:19:41.074Z,101168.83
2022-09-04T15:24:44.048Z,101177.17
2022-09-04T15:30:18.794Z,101175.33
2022-09-04T15:35:28.389Z,101174.63
2022-09-04T15:40:59.620Z,101175.55
2022-09-04T15:46:21.038Z,101178.55
2022-09-04T15:51:41.638Z,101174.11
2022-09-04T15:56:54.108Z,101172.65
2022-09-04T16:02:11.931Z,101170.98
2022-09-04T16:07:33.099Z,101174.73
2022-09-04T16:12:53.305Z,101176.98
2022-09-04T16:17:59.855Z,101180.58
2022-09-04T16:23:08.584Z,101185.34
2022-09-04T16:28:20.324Z,101187.27
2022-09-04T16:33:38.243Z,101188.17
2022-09-04T16:38:50.563Z,101189.83
2022-09-04T16:44:07.462Z,101194.30
2022-09-04T16:49:22.076Z,101194.11
2022-09-04T16:54:49.253Z,101195.08
2022-09-04T17:00:22.646Z,101203.03
2022-09-04T17:05:39.411Z,101208.63
2022-09-04T17:11:04.382Z,101208.74
2022-09-04T17:16:19.866Z,101211.86
2022-09-04T17:27:32.393Z,101218.70
2022-09-04T17:29:09.737Z,101224.63
2022-09-04T17:40:32.454Z,101231.33
2022-09-04T17:40:46.823Z,101239.59
2022-09-04T17:44:25.499Z,101245.39
2022-09-04T17:49:34.708Z,101254.10
2022-09-04T17:54:48.896Z,101259.33
2022-09-04T17:59:57.165Z,101271.17
2022-09-04T18:05:15.023Z,101279.86
2022-09-04T18:10:36.030Z,101290.48
2022-09-04T18:16:17.018Z,101301.29
2022-09-04T18:21:29.235Z,101310.67
2022-09-04T18:26:45.900Z,101315.90
2022-09-04T18:37:06.420Z,101311.70
2022-09-04T18:37:47.441Z,101320.99
2022-09-04T18:46:41.266Z,101326.05
2022-09-04T18:51:06.965Z,101329.70
2022-09-04T18:54:20.508Z,101335.77
2022-09-04T18:59:29.955Z,101343.23
2022-09-04T19:04:41.685Z,101349.91
2022-09-04T19:10:06.405Z,101351.67
2022-09-04T19:15:36.298Z,101355.05
2022-09-04T19:20:48.347Z,101361.91
2022-09-04T19:25:55.210Z,101363.70
2022-09-04T19:31:06.082Z,101367.77
2022-09-04T19:36:37.931Z,101374.66
2022-09-04T19:46:02.354Z,101376.09
2022-09-04T19:47:27.242Z,101382.23
2022-09-04T19:53:30.150Z,101385.77
2022-09-04T19:58:09.644Z,101389.66
2022-09-04T20:03:29.482Z,101387.42
2022-09-04T20:08:42.445Z,101390.27
2022-09-04T20:13:49.958Z,101396.43
2022-09-04T20:19:12.057Z,101403.98
2022-09-04T20:24:32.670Z,101408.54
2022-09-04T20:29:54.751Z,101409.60
2022-09-04T20:35:33.290Z,101412.41
2022-09-04T20:40:59.508Z,101410.31
2022-09-04T20:47:44.508Z,101413.50
2022-09-04T20:52:52.787Z,101415.43
2022-09-04T20:59:26.791Z,101421.20
2022-09-04T21:03:28.042Z,101423.84
2022-09-04T21:08:32.029Z,101431.00
2022-09-04T21:13:51.737Z,101440.11
2022-09-04T21:19:27.644Z,101446.55
2022-09-04T21:24:54.371Z,101451.60
2022-09-04T21:30:17.163Z,101456.50
2022-09-04T21:35:32.333Z,101454.40
2022-09-04T21:40:49.966Z,101461.23
2022-09-04T21:46:18.517Z,101457.73
2022-09-04T21:51:28.652Z,101459.47
2022-09-04T22:02:29.946Z,101464.02
2022-09-04T22:02:59.442Z,101463.63
2022-09-04T22:13:32.066Z,101467.45
2022-09-04T22:13:49.308Z,101471.80
2022-09-04T22:19:01.952Z,101469.48
2022-09-04T22:24:41.281Z,101472.77
2022-09-04T22:29:58.448Z,101472.92
2022-09-04T22:35:35.914Z,101478.31
2022-09-04T22:40:56.203Z,101480.86
2022-09-04T22:46:03.364Z,101482.02
2022-09-04T22:51:25.319Z,101487.21
2022-09-04T22:56:28.320Z,101488.38
2022-09-04T23:01:31.735Z,101485.89
2022-09-04T23:10:43.497Z,101488.98
2022-09-04T23:14:02.223Z,101493.64
2022-09-04T23:21:23.603Z,101487.64
2022-09-04T23:26:46.605Z,101492.83
2022-09-04T23:29:44.485Z,101488.73
2022-09-04T23:34:54.666Z,101484.27
2022-09-04T23:40:38.007Z,101486.77
2022-09-04T23:46:08.293Z,101487.75
2022-09-04T23:51:56.267Z,101493.25
2022-09-04T23:57:26.195Z,101493.38
